| time (UTC) | temp F | wind direction | speed MPH | gust MPH | rain 1hr in | rain 24hr in | rain mn in | humidity % | barometer mb |
| 20260903182620 | 100 | 131 | 3.0 | 8.0 | 0.00 | 0.00 | 0.00 | 45 | 1019.6 |
| 20260903182117 | 100 | 11 | 2.0 | 3.0 | 0.00 | 0.00 | 0.00 | 43 | 1019.8 |
| 20260903181614 | 101 | 291 | 4.0 | 5.0 | 0.00 | 0.00 | 0.00 | 43 | 1019.6 |
| 20260903181109 | 98 | 134 | 0.0 | 5.0 | 0.00 | 0.00 | 0.00 | 47 | 1019.8 |
| 20260903180604 | 99 | 138 | 3.0 | 5.0 | 0.00 | 0.00 | 0.00 | 46 | 1019.8 |
| 20260903180059 | 101 | 149 | 3.0 | 3.0 | 0.00 | 0.00 | 0.00 | 43 | 1019.9 |
| 20260903175558 | 100 | 39 | 1.0 | 6.0 | 0.00 | 0.00 | 0.00 | 45 | 1019.8 |
| 20260903175057 | 100 | 160 | 1.0 | 5.0 | 0.00 | 0.00 | 0.00 | 45 | 1019.9 |
| 20260903174552 | 100 | 162 | 0.0 | 2.0 | 0.00 | 0.00 | 0.00 | 46 | 1020.0 |
| 20260903174047 | 99 | 314 | 3.0 | 6.0 | 0.00 | 0.00 | 0.00 | 45 | 1020.1 |
| 20260903173542 | 99 | 69 | 2.0 | 5.0 | 0.00 | 0.00 | 0.00 | 47 | 1020.1 |
| 20260903173038 | 100 | 55 | 2.0 | 5.0 | 0.00 | 0.00 | 0.00 | 45 | 1020.2 |
| 20260903172533 | 100 | 146 | 1.0 | 3.0 | 0.00 | 0.00 | 0.00 | 45 | 1019.9 |
| 20260903172028 | 99 | 179 | 1.0 | 2.0 | 0.00 | 0.00 | 0.00 | 45 | 1020.2 |
| 20260903171523 | 99 | 220 | 3.0 | 7.0 | 0.00 | 0.00 | 0.00 | 46 | 1020.2 |
| 20260903171018 | 100 | 259 | 5.0 | 8.0 | 0.00 | 0.00 | 0.00 | 46 | 1020.2 |
| 20260903170511 | 98 | 151 | 2.0 | 3.0 | 0.00 | 0.00 | 0.00 | 46 | 1020.2 |
| 20260903170007 | 99 | 187 | 2.0 | 5.0 | 0.00 | 0.00 | 0.00 | 46 | 1020.4 |
| 20260903165505 | 99 | 36 | 3.0 | 5.0 | 0.00 | 0.00 | 0.00 | 46 | 1020.1 |
| 20260903165001 | 100 | 145 | 4.0 | 9.0 | 0.00 | 0.00 | 0.00 | 46 | 1020.4 |
| 20260903164455 | 99 | 334 | 1.0 | 5.0 | 0.00 | 0.00 | 0.00 | 47 | 1020.4 |
| 20260903163955 | 99 | 13 | 5.0 | 7.0 | 0.00 | 0.00 | 0.00 | 46 | 1020.6 |
| 20260903163451 | 100 | 348 | 3.0 | 6.0 | 0.00 | 0.00 | 0.00 | 46 | 1020.5 |
| 20260903162946 | 98 | 178 | 2.0 | 3.0 | 0.00 | 0.00 | 0.00 | 48 | 1020.6 |
| 20260903162437 | 98 | 165 | 0.0 | 5.0 | 0.00 | 0.00 | 0.00 | 48 | 1020.8 |
| 20260903161933 | 98 | 26 | 2.0 | 5.0 | 0.00 | 0.00 | 0.00 | 47 | 1020.8 |
| 20260903161428 | 98 | 201 | 2.0 | 2.0 | 0.00 | 0.00 | 0.00 | 47 | 1020.7 |
| 20260903160924 | 98 | 178 | 3.0 | 5.0 | 0.00 | 0.00 | 0.00 | 47 | 1020.7 |
| 20260903160423 | 98 | 348 | 4.0 | 9.0 | 0.00 | 0.00 | 0.00 | 48 | 1020.7 |
| 20260903155921 | 98 | 85 | 2.0 | 6.0 | 0.00 | 0.00 | 0.00 | 49 | 1020.6 |
| 20260903155417 | 98 | 303 | 5.0 | 7.0 | 0.00 | 0.00 | 0.00 | 49 | 1020.7 |
| 20260903154913 | 98 | 290 | 2.0 | 3.0 | 0.00 | 0.00 | 0.00 | 49 | 1020.9 |
| 20260903154408 | 97 | 128 | 0.0 | 5.0 | 0.00 | 0.00 | 0.00 | 53 | 1020.8 |
| 20260903153903 | 97 | 141 | 0.0 | 1.0 | 0.00 | 0.00 | 0.00 | 54 | 1020.8 |
| 20260903153358 | 97 | 164 | 2.0 | 5.0 | 0.00 | 0.00 | 0.00 | 55 | 1020.8 |
| 20260903152855 | 96 | 186 | 1.0 | 3.0 | 0.00 | 0.00 | 0.00 | 56 | 1020.8 |
| 20260903152350 | 94 | 133 | 0.0 | 2.0 | 0.00 | 0.00 | 0.00 | 58 | 1020.9 |
| 20260903151846 | 95 | 282 | 3.0 | 5.0 | 0.00 | 0.00 | 0.00 | 57 | 1020.9 |
| 20260903151341 | 95 | 122 | 1.0 | 3.0 | 0.00 | 0.00 | 0.00 | 57 | 1020.8 |
| 20260903150840 | 95 | 119 | 0.0 | 1.0 | 0.00 | 0.00 | 0.00 | 57 | 1020.8 |
| 20260903150335 | 93 | 238 | 2.0 | 3.0 | 0.00 | 0.00 | 0.00 | 59 | 1020.9 |
| 20260903145830 | 93 | 135 | 0.0 | 3.0 | 0.00 | 0.00 | 0.00 | 62 | 1020.8 |
| 20260903145325 | 94 | 125 | 0.0 | 2.0 | 0.00 | 0.00 | 0.00 | 61 | 1021.0 |
| 20260903144824 | 93 | 131 | 0.0 | 1.0 | 0.00 | 0.00 | 0.00 | 60 | 1020.9 |
| 20260903144320 | 93 | 140 | 0.0 | 1.0 | 0.00 | 0.00 | 0.00 | 60 | 1021.0 |
| 20260903143815 | 93 | 143 | 1.0 | 2.0 | 0.00 | 0.00 | 0.00 | 62 | 1021.0 |
| 20260903143312 | 92 | 116 | 0.0 | 2.0 | 0.00 | 0.00 | 0.00 | 62 | 1021.1 |
| 20260903142808 | 92 | 157 | 1.0 | 1.0 | 0.00 | 0.00 | 0.00 | 63 | 1021.1 |
| 20260903142306 | 91 | 164 | 1.0 | 1.0 | 0.00 | 0.00 | 0.00 | 64 | 1021.0 |
| 20260903141759 | 90 | 269 | 3.0 | 3.0 | 0.00 | 0.00 | 0.00 | 66 | 1021.2 |
| 20260903141255 | 89 | 168 | 1.0 | 2.0 | 0.00 | 0.00 | 0.00 | 69 | 1021.2 |
| 20260903140754 | 87 | 129 | 0.0 | 2.0 | 0.00 | 0.00 | 0.00 | 73 | 1021.0 |
| 20260903140249 | 87 | 139 | 0.0 | 2.0 | 0.00 | 0.00 | 0.00 | 72 | 1021.1 |
| 20260903135745 | 87 | 139 | 0.0 | 1.0 | 0.00 | 0.00 | 0.00 | 74 | 1021.1 |
| 20260903135240 | 86 | 141 | 1.0 | 2.0 | 0.00 | 0.00 | 0.00 | 75 | 1021.1 |
| 20260903134739 | 86 | 132 | 2.0 | 2.0 | 0.00 | 0.00 | 0.00 | 76 | 1021.2 |
| 20260903134235 | 86 | 143 | 0.0 | 0.0 | 0.00 | 0.00 | 0.00 | 76 | 1021.2 |
| 20260903133732 | 84 | 130 | 0.0 | 1.0 | 0.00 | 0.00 | 0.00 | 79 | 1021.2 |
| 20260903133229 | 83 | 132 | 0.0 | 1.0 | 0.00 | 0.00 | 0.00 | 81 | 1021.3 |
| 20260903132724 | 82 | 127 | 1.0 | 2.0 | 0.00 | 0.00 | 0.00 | 83 | 1021.4 |
| 20260903132224 | 80 | 138 | 2.0 | 2.0 | 0.00 | 0.00 | 0.00 | 87 | 1021.4 |
| 20260903131718 | 78 | 143 | 0.0 | 1.0 | 0.00 | 0.00 | 0.00 | 93 | 1021.5 |
| 20260903131213 | 76 | 138 | 1.0 | 1.0 | 0.00 | 0.00 | 0.00 | 99 | 1021.3 |
| 20260903130708 | 75 | 122 | 0.0 | 1.0 | 0.00 | 0.00 | 0.00 | 99 | 1021.3 |
| 20260903130202 | 75 | 120 | 0.0 | 0.0 | 0.00 | 0.00 | 0.00 | 99 | 1021.6 |
| 20260903125701 | 75 | 127 | 0.0 | 0.0 | 0.00 | 0.00 | 0.00 | 99 | 1021.4 |
| 20260903125156 | 75 | 126 | 0.0 | 0.0 | 0.00 | 0.00 | 0.00 | 99 | 1021.5 |
| 20260903124655 | 75 | 121 | 0.0 | 0.0 | 0.00 | 0.00 | 0.00 | 99 | 1021.6 |
| 20260903124150 | 75 | 120 | 0.0 | 0.0 | 0.00 | 0.00 | 0.00 | 99 | 1021.6 |
| 20260903123649 | 74 | 120 | 0.0 | 0.0 | 0.00 | 0.00 | 0.00 | 99 | 1021.4 |
| 20260903123148 | 73 | 119 | 0.0 | 0.0 | 0.00 | 0.00 | 0.00 | 99 | 1021.6 |
| 20260903122648 | 73 | 120 | 0.0 | 0.0 | 0.00 | 0.00 | 0.00 | 99 | 1021.7 |
| 20260903122142 | 73 | 118 | 0.0 | 0.0 | 0.00 | 0.00 | 0.00 | 99 | 1021.8 |
| 20260903121641 | 72 | 118 | 0.0 | 0.0 | 0.00 | 0.00 | 0.00 | 99 | 1021.6 |
| 20260903121138 | 72 | 118 | 0.0 | 0.0 | 0.00 | 0.00 | 0.00 | 99 | 1021.5 |
| 20260903120636 | 72 | 118 | 0.0 | 0.0 | 0.00 | 0.00 | 0.00 | 99 | 1021.4 |
| 20260903120131 | 72 | 118 | 0.0 | 0.0 | 0.00 | 0.00 | 0.00 | 99 | 1021.5 |
| 20260903115629 | 72 | 118 | 0.0 | 0.0 | 0.00 | 0.00 | 0.00 | 99 | 1021.5 |
| 20260903115125 | 71 | 118 | 0.0 | 0.0 | 0.00 | 0.00 | 0.00 | 99 | 1021.4 |
| 20260903114620 | 71 | 118 | 0.0 | 0.0 | 0.00 | 0.00 | 0.00 | 99 | 1021.5 |
| 20260903114115 | 71 | 118 | 0.0 | 0.0 | 0.00 | 0.00 | 0.00 | 99 | 1021.4 |
| 20260903113610 | 71 | 119 | 0.0 | 0.0 | 0.00 | 0.00 | 0.00 | 99 | 1021.2 |
| 20260903113106 | 71 | 119 | 0.0 | 0.0 | 0.00 | 0.00 | 0.00 | 99 | 1021.3 |
| 20260903112557 | 71 | 118 | 0.0 | 0.0 | 0.00 | 0.00 | 0.00 | 99 | 1021.1 |
| 20260903112057 | 71 | 119 | 0.0 | 0.0 | 0.00 | 0.00 | 0.00 | 99 | 1021.1 |
| 20260903111555 | 71 | 119 | 0.0 | 0.0 | 0.00 | 0.00 | 0.00 | 99 | 1021.1 |
| 20260903111052 | 71 | 119 | 0.0 | 0.0 | 0.00 | 0.00 | 0.00 | 99 | 1021.1 |
| 20260903110548 | 71 | 119 | 0.0 | 0.0 | 0.00 | 0.00 | 0.00 | 99 | 1021.1 |
| 20260903110042 | 71 | 119 | 0.0 | 0.0 | 0.00 | 0.00 | 0.00 | 99 | 1021.1 |
| 20260903105537 | 71 | 119 | 0.0 | 0.0 | 0.00 | 0.00 | 0.00 | 99 | 1021.0 |
| 20260903105032 | 71 | 119 | 0.0 | 0.0 | 0.00 | 0.00 | 0.00 | 99 | 1021.1 |
| 20260903104532 | 71 | 118 | 0.0 | 0.0 | 0.00 | 0.00 | 0.00 | 99 | 1021.0 |
| 20260903104028 | 71 | 118 | 0.0 | 0.0 | 0.00 | 0.00 | 0.00 | 99 | 1021.0 |
| 20260903103523 | 71 | 118 | 0.0 | 0.0 | 0.00 | 0.00 | 0.00 | 99 | 1021.0 |
| 20260903103020 | 71 | 118 | 0.0 | 0.0 | 0.00 | 0.00 | 0.00 | 99 | 1021.0 |
| 20260903102515 | 71 | 118 | 0.0 | 0.0 | 0.00 | 0.00 | 0.00 | 99 | 1021.0 |
| 20260903102014 | 71 | 119 | 0.0 | 0.0 | 0.00 | 0.00 | 0.00 | 99 | 1021.1 |
| 20260903101508 | 71 | 119 | 0.0 | 0.0 | 0.00 | 0.00 | 0.00 | 99 | 1020.8 |
| 20260903101004 | 71 | 119 | 0.0 | 0.0 | 0.00 | 0.00 | 0.00 | 99 | 1020.8 |
| 20260903100458 | 71 | 119 | 0.0 | 0.0 | 0.00 | 0.00 | 0.00 | 99 | 1020.9 |
| 20260903095955 | 72 | 118 | 0.0 | 0.0 | 0.00 | 0.00 | 0.00 | 99 | 1020.8 |
| 20260903095450 | 72 | 117 | 0.0 | 0.0 | 0.00 | 0.00 | 0.00 | 99 | 1020.8 |
| 20260903094945 | 72 | 117 | 0.0 | 0.0 | 0.00 | 0.00 | 0.00 | 99 | 1020.9 |
| 20260903094445 | 72 | 117 | 0.0 | 0.0 | 0.00 | 0.00 | 0.00 | 99 | 1020.8 |
| 20260903093941 | 72 | 117 | 0.0 | 0.0 | 0.00 | 0.00 | 0.00 | 99 | 1021.0 |
| 20260903093436 | 72 | 117 | 0.0 | 0.0 | 0.00 | 0.00 | 0.00 | 99 | 1020.8 |
| 20260903092932 | 72 | 117 | 0.0 | 0.0 | 0.00 | 0.00 | 0.00 | 99 | 1020.9 |
| 20260903092431 | 72 | 117 | 0.0 | 0.0 | 0.00 | 0.00 | 0.00 | 99 | 1020.8 |
| 20260903091930 | 72 | 117 | 0.0 | 0.0 | 0.00 | 0.00 | 0.00 | 99 | 1020.8 |
| 20260903091429 | 72 | 117 | 0.0 | 0.0 | 0.00 | 0.00 | 0.00 | 99 | 1020.8 |
| 20260903090924 | 72 | 117 | 0.0 | 0.0 | 0.00 | 0.00 | 0.00 | 99 | 1020.8 |
| 20260903090420 | 72 | 116 | 0.0 | 0.0 | 0.00 | 0.00 | 0.00 | 99 | 1020.7 |
| 20260903085918 | 72 | 116 | 0.0 | 0.0 | 0.00 | 0.00 | 0.00 | 99 | 1020.6 |
| 20260903085416 | 72 | 116 | 0.0 | 0.0 | 0.00 | 0.00 | 0.00 | 99 | 1020.6 |
| 20260903084916 | 72 | 116 | 0.0 | 0.0 | 0.00 | 0.00 | 0.00 | 99 | 1020.5 |
| 20260903084415 | 72 | 116 | 0.0 | 0.0 | 0.00 | 0.00 | 0.00 | 99 | 1020.7 |
| 20260903083910 | 72 | 116 | 0.0 | 0.0 | 0.00 | 0.00 | 0.00 | 99 | 1020.4 |
| 20260903083407 | 72 | 116 | 0.0 | 0.0 | 0.00 | 0.00 | 0.00 | 99 | 1020.4 |
| 20260903082905 | 72 | 116 | 0.0 | 0.0 | 0.00 | 0.00 | 0.00 | 99 | 1020.5 |
| 20260903082400 | 72 | 118 | 0.0 | 0.0 | 0.00 | 0.00 | 0.00 | 99 | 1020.5 |
| 20260903081855 | 72 | 119 | 0.0 | 0.0 | 0.00 | 0.00 | 0.00 | 99 | 1020.5 |
| 20260903081350 | 72 | 119 | 0.0 | 0.0 | 0.00 | 0.00 | 0.00 | 99 | 1020.3 |
| 20260903080847 | 72 | 119 | 0.0 | 0.0 | 0.00 | 0.00 | 0.00 | 99 | 1020.4 |
| 20260903080344 | 72 | 119 | 0.0 | 0.0 | 0.00 | 0.00 | 0.00 | 99 | 1020.3 |
| 20260903075844 | 72 | 119 | 0.0 | 0.0 | 0.00 | 0.00 | 0.00 | 99 | 1020.2 |
| 20260903075339 | 72 | 119 | 0.0 | 0.0 | 0.00 | 0.00 | 0.00 | 99 | 1020.4 |
| 20260903074838 | 73 | 119 | 0.0 | 0.0 | 0.00 | 0.00 | 0.00 | 99 | 1020.3 |
| 20260903074333 | 73 | 118 | 0.0 | 0.0 | 0.00 | 0.00 | 0.00 | 99 | 1020.4 |
| 20260903073829 | 73 | 119 | 0.0 | 0.0 | 0.00 | 0.00 | 0.00 | 99 | 1020.3 |
| 20260903073324 | 73 | 119 | 0.0 | 0.0 | 0.00 | 0.00 | 0.00 | 99 | 1020.2 |
| 20260903072820 | 73 | 119 | 0.0 | 0.0 | 0.00 | 0.00 | 0.00 | 99 | 1020.2 |
| 20260903072315 | 73 | 119 | 0.0 | 0.0 | 0.00 | 0.00 | 0.00 | 99 | 1020.2 |
| 20260903071812 | 73 | 119 | 0.0 | 0.0 | 0.00 | 0.00 | 0.00 | 99 | 1020.2 |
| 20260903071308 | 73 | 119 | 0.0 | 0.0 | 0.00 | 0.00 | 0.00 | 99 | 1020.1 |
| 20260903070802 | 73 | 119 | 0.0 | 0.0 | 0.00 | 0.00 | 0.00 | 99 | 1020.1 |
| 20260903070257 | 73 | 119 | 0.0 | 0.0 | 0.00 | 0.00 | 0.00 | 99 | 1020.4 |
| 20260903065752 | 73 | 119 | 0.0 | 0.0 | 0.00 | 0.00 | 0.00 | 99 | 1020.2 |
| 20260903065252 | 73 | 119 | 0.0 | 0.0 | 0.00 | 0.00 | 0.00 | 99 | 1020.2 |
| 20260903064751 | 73 | 119 | 0.0 | 0.0 | 0.00 | 0.00 | 0.00 | 99 | 1020.0 |
| 20260903064247 | 73 | 119 | 0.0 | 0.0 | 0.00 | 0.00 | 0.00 | 99 | 1020.0 |
| 20260903063743 | 73 | 119 | 0.0 | 0.0 | 0.00 | 0.00 | 0.00 | 99 | 1020.0 |
| 20260903063237 | 73 | 119 | 0.0 | 0.0 | 0.00 | 0.00 | 0.00 | 99 | 1020.1 |
| 20260903062733 | 73 | 119 | 0.0 | 0.0 | 0.00 | 0.00 | 0.00 | 99 | 1020.1 |
| 20260903062232 | 73 | 119 | 0.0 | 0.0 | 0.00 | 0.00 | 0.00 | 99 | 1020.0 |
| 20260903061729 | 73 | 119 | 0.0 | 0.0 | 0.00 | 0.00 | 0.00 | 99 | 1020.0 |
| 20260903061228 | 73 | 119 | 0.0 | 0.0 | 0.00 | 0.00 | 0.00 | 99 | 1020.2 |
| 20260903060724 | 74 | 119 | 0.0 | 0.0 | 0.00 | 0.00 | 0.00 | 99 | 1020.2 |
| 20260903060223 | 74 | 119 | 0.0 | 0.0 | 0.00 | 0.00 | 0.00 | 99 | 1020.1 |
| 20260903055721 | 74 | 119 | 0.0 | 0.0 | 0.00 | 0.00 | 0.00 | 99 | 1020.2 |
| 20260903055220 | 74 | 119 | 0.0 | 0.0 | 0.00 | 0.00 | 0.00 | 99 | 1020.2 |
| 20260903054715 | 74 | 119 | 0.0 | 0.0 | 0.00 | 0.00 | 0.00 | 99 | 1020.1 |
| 20260903054210 | 74 | 119 | 0.0 | 0.0 | 0.00 | 0.00 | 0.00 | 99 | 1020.1 |
| 20260903053707 | 74 | 119 | 0.0 | 0.0 | 0.00 | 0.00 | 0.00 | 99 | 1020.1 |
| 20260903053201 | 74 | 119 | 0.0 | 0.0 | 0.00 | 0.00 | 0.00 | 99 | 1019.9 |
| 20260903052657 | 74 | 119 | 0.0 | 0.0 | 0.00 | 0.00 | 0.00 | 99 | 1020.3 |
| 20260903052152 | 74 | 119 | 0.0 | 0.0 | 0.00 | 0.00 | 0.00 | 99 | 1019.9 |
| 20260903051647 | 74 | 119 | 0.0 | 0.0 | 0.00 | 0.00 | 0.00 | 99 | 1020.1 |
| 20260903051143 | 74 | 119 | 0.0 | 0.0 | 0.00 | 0.00 | 0.00 | 99 | 1020.2 |
| 20260903050638 | 75 | 119 | 0.0 | 0.0 | 0.00 | 0.00 | 0.00 | 98 | 1020.0 |
| 20260903050132 | 75 | 121 | 0.0 | 0.0 | 0.00 | 0.00 | 0.00 | 98 | 1019.9 |
| 20260903045631 | 75 | 121 | 0.0 | 0.0 | 0.00 | 0.00 | 0.00 | 98 | 1020.1 |
| 20260903045128 | 75 | 121 | 0.0 | 0.0 | 0.00 | 0.00 | 0.00 | 98 | 1020.1 |
| 20260903044624 | 75 | 121 | 0.0 | 0.0 | 0.00 | 0.00 | 0.00 | 98 | 1020.0 |
| 20260903044119 | 75 | 122 | 0.0 | 0.0 | 0.00 | 0.00 | 0.00 | 98 | 1019.9 |
| 20260903043616 | 75 | 122 | 0.0 | 0.0 | 0.00 | 0.00 | 0.00 | 98 | 1019.8 |
| 20260903043115 | 75 | 122 | 0.0 | 0.0 | 0.00 | 0.00 | 0.00 | 97 | 1019.9 |
| 20260903042609 | 75 | 122 | 0.0 | 0.0 | 0.00 | 0.00 | 0.00 | 97 | 1020.0 |
| 20260903042104 | 75 | 122 | 0.0 | 0.0 | 0.00 | 0.00 | 0.00 | 97 | 1019.9 |
| 20260903041601 | 75 | 121 | 0.0 | 0.0 | 0.00 | 0.00 | 0.00 | 97 | 1020.2 |
| 20260903041102 | 75 | 122 | 0.0 | 0.0 | 0.00 | 0.00 | 0.00 | 97 | 1020.0 |
| 20260903040600 | 75 | 121 | 0.0 | 0.0 | 0.00 | 0.00 | 0.00 | 96 | 1020.1 |
| 20260903040057 | 75 | 113 | 0.0 | 0.0 | 0.00 | 0.00 | 0.00 | 96 | 1020.0 |
| 20260903035552 | 76 | 113 | 0.0 | 0.0 | 0.00 | 0.00 | 0.00 | 96 | 1019.9 |
| 20260903035048 | 76 | 113 | 0.0 | 0.0 | 0.00 | 0.00 | 0.00 | 96 | 1019.9 |
| 20260903034543 | 76 | 112 | 0.0 | 0.0 | 0.00 | 0.00 | 0.00 | 95 | 1019.9 |
| 20260903034038 | 76 | 112 | 0.0 | 0.0 | 0.00 | 0.00 | 0.00 | 95 | 1019.9 |
| 20260903033533 | 76 | 112 | 0.0 | 0.0 | 0.00 | 0.00 | 0.00 | 95 | 1019.9 |
| 20260903033028 | 76 | 112 | 0.0 | 0.0 | 0.00 | 0.00 | 0.00 | 95 | 1020.0 |
| 20260903032523 | 76 | 112 | 0.0 | 0.0 | 0.00 | 0.00 | 0.00 | 94 | 1019.9 |
| 20260903032018 | 76 | 112 | 0.0 | 0.0 | 0.00 | 0.00 | 0.00 | 94 | 1019.9 |
| 20260903031513 | 76 | 111 | 0.0 | 0.0 | 0.00 | 0.00 | 0.00 | 94 | 1019.8 |
| 20260903031008 | 77 | 115 | 0.0 | 0.0 | 0.00 | 0.00 | 0.00 | 94 | 1020.0 |
| 20260903030504 | 77 | 115 | 0.0 | 0.0 | 0.00 | 0.00 | 0.00 | 93 | 1020.0 |
| 20260903025959 | 77 | 115 | 0.0 | 0.0 | 0.00 | 0.00 | 0.00 | 93 | 1019.7 |
| 20260903025455 | 77 | 115 | 0.0 | 0.0 | 0.00 | 0.00 | 0.00 | 92 | 1019.9 |
| 20260903024950 | 77 | 115 | 0.0 | 0.0 | 0.00 | 0.00 | 0.00 | 92 | 1020.0 |
| 20260903024449 | 77 | 115 | 0.0 | 0.0 | 0.00 | 0.00 | 0.00 | 92 | 1019.8 |
| 20260903023944 | 77 | 115 | 0.0 | 0.0 | 0.00 | 0.00 | 0.00 | 91 | 1019.7 |
| 20260903023440 | 77 | 114 | 0.0 | 0.0 | 0.00 | 0.00 | 0.00 | 91 | 1019.8 |
| 20260903022935 | 78 | 121 | 0.0 | 0.0 | 0.00 | 0.00 | 0.00 | 91 | 1019.9 |
| 20260903022434 | 78 | 107 | 0.0 | 0.0 | 0.00 | 0.00 | 0.00 | 90 | 1019.8 |
| 20260903021932 | 78 | 130 | 0.0 | 0.0 | 0.00 | 0.00 | 0.00 | 90 | 1019.7 |
| 20260903021428 | 78 | 130 | 0.0 | 0.0 | 0.00 | 0.00 | 0.00 | 90 | 1020.0 |
| 20260903020923 | 78 | 130 | 0.0 | 0.0 | 0.00 | 0.00 | 0.00 | 89 | 1019.8 |
| 20260903020418 | 78 | 130 | 0.0 | 0.0 | 0.00 | 0.00 | 0.00 | 89 | 1019.8 |
| 20260903015913 | 78 | 130 | 0.0 | 0.0 | 0.00 | 0.00 | 0.00 | 88 | 1019.7 |
| 20260903015409 | 78 | 130 | 0.0 | 0.0 | 0.00 | 0.00 | 0.00 | 88 | 1019.7 |
| 20260903014903 | 79 | 130 | 0.0 | 0.0 | 0.00 | 0.00 | 0.00 | 87 | 1019.9 |
| 20260903014357 | 79 | 130 | 0.0 | 0.0 | 0.00 | 0.00 | 0.00 | 86 | 1019.7 |
| 20260903013852 | 79 | 130 | 0.0 | 0.0 | 0.00 | 0.00 | 0.00 | 86 | 1019.7 |
| 20260903013352 | 79 | 130 | 0.0 | 0.0 | 0.00 | 0.00 | 0.00 | 87 | 1019.6 |
| 20260903012851 | 80 | 130 | 0.0 | 0.0 | 0.00 | 0.00 | 0.00 | 86 | 1019.5 |
| 20260903012351 | 80 | 130 | 0.0 | 0.0 | 0.00 | 0.00 | 0.00 | 86 | 1020.0 |
| 20260903011850 | 80 | 130 | 0.0 | 0.0 | 0.00 | 0.00 | 0.00 | 86 | 1019.7 |
| 20260903011344 | 81 | 130 | 0.0 | 0.0 | 0.00 | 0.00 | 0.00 | 85 | 1019.6 |
| 20260903010840 | 81 | 130 | 0.0 | 0.0 | 0.00 | 0.00 | 0.00 | 84 | 1019.7 |
| 20260903010335 | 81 | 130 | 0.0 | 0.0 | 0.00 | 0.00 | 0.00 | 83 | 1019.5 |
| 20260903005833 | 82 | 130 | 0.0 | 0.0 | 0.00 | 0.00 | 0.00 | 83 | 1019.6 |
| 20260903005329 | 82 | 130 | 0.0 | 0.0 | 0.00 | 0.00 | 0.00 | 82 | 1019.5 |
| 20260903004825 | 82 | 131 | 0.0 | 0.0 | 0.00 | 0.00 | 0.00 | 81 | 1019.4 |
| 20260903004320 | 83 | 131 | 0.0 | 0.0 | 0.00 | 0.00 | 0.00 | 80 | 1019.5 |
| 20260903003816 | 84 | 137 | 0.0 | 0.0 | 0.00 | 0.00 | 0.00 | 79 | 1019.4 |
| 20260903003310 | 84 | 137 | 0.0 | 0.0 | 0.00 | 0.00 | 0.00 | 78 | 1019.6 |
| 20260903002810 | 85 | 137 | 0.0 | 0.0 | 0.00 | 0.00 | 0.00 | 76 | 1019.6 |
| 20260903002309 | 86 | 137 | 0.0 | 0.0 | 0.00 | 0.00 | 0.00 | 75 | 1019.4 |
| 20260903001804 | 86 | 138 | 0.0 | 0.0 | 0.00 | 0.00 | 0.00 | 73 | 1019.5 |
| 20260903001259 | 88 | 140 | 0.0 | 0.0 | 0.00 | 0.00 | 0.00 | 70 | 1019.4 |
| 20260903000754 | 89 | 140 | 0.0 | 0.0 | 0.00 | 0.00 | 0.00 | 68 | 1019.6 |
| 20260903000249 | 90 | 140 | 0.0 | 0.0 | 0.00 | 0.00 | 0.00 | 64 | 1019.6 |
| 20260902235747 | 91 | 140 | 0.0 | 0.0 | 0.00 | 0.00 | 0.00 | 61 | 1019.6 |
| 20260902235242 | 92 | 141 | 0.0 | 0.0 | 0.00 | 0.00 | 0.00 | 59 | 1019.4 |
| 20260902234742 | 93 | 141 | 0.0 | 0.0 | 0.00 | 0.00 | 0.00 | 56 | 1019.4 |
| 20260902234236 | 94 | 129 | 1.0 | 2.0 | 0.00 | 0.00 | 0.00 | 55 | 1019.5 |
| 20260902233736 | 94 | 129 | 0.0 | 0.0 | 0.00 | 0.00 | 0.00 | 54 | 1019.4 |
| 20260902233230 | 95 | 140 | 0.0 | 1.0 | 0.00 | 0.00 | 0.00 | 53 | 1019.5 |
| 20260902232729 | 96 | 136 | 0.0 | 1.0 | 0.00 | 0.00 | 0.00 | 52 | 1019.6 |
| 20260902232229 | 96 | 179 | 2.0 | 2.0 | 0.00 | 0.00 | 0.00 | 50 | 1019.4 |
| 20260902231728 | 97 | 138 | 1.0 | 1.0 | 0.00 | 0.00 | 0.00 | 49 | 1019.6 |
| 20260902231224 | 97 | 143 | 1.0 | 1.0 | 0.00 | 0.00 | 0.00 | 49 | 1019.6 |
| 20260902230718 | 97 | 148 | 0.0 | 2.0 | 0.00 | 0.00 | 0.00 | 49 | 1019.7 |
| 20260902230218 | 97 | 162 | 0.0 | 2.0 | 0.00 | 0.00 | 0.00 | 49 | 1019.8 |
| 20260902225713 | 97 | 128 | 1.0 | 2.0 | 0.00 | 0.00 | 0.00 | 49 | 1019.5 |
| 20260902225213 | 96 | 204 | 1.0 | 6.0 | 0.00 | 0.00 | 0.00 | 50 | 1019.5 |
| 20260902224711 | 97 | 178 | 2.0 | 3.0 | 0.00 | 0.00 | 0.00 | 48 | 1019.6 |
| 20260902224207 | 98 | 168 | 1.0 | 5.0 | 0.00 | 0.00 | 0.00 | 48 | 1019.5 |
| 20260902223703 | 98 | 172 | 1.0 | 5.0 | 0.00 | 0.00 | 0.00 | 47 | 1019.5 |
| 20260902223202 | 99 | 127 | 3.0 | 5.0 | 0.00 | 0.00 | 0.00 | 47 | 1019.6 |
| 20260902222701 | 99 | 158 | 1.0 | 3.0 | 0.00 | 0.00 | 0.00 | 45 | 1019.6 |
| 20260902222155 | 98 | 132 | 1.0 | 3.0 | 0.00 | 0.00 | 0.00 | 46 | 1019.8 |
| 20260902221649 | 99 | 206 | 2.0 | 5.0 | 0.00 | 0.00 | 0.00 | 45 | 1019.9 |
| 20260902221149 | 99 | 283 | 2.0 | 3.0 | 0.00 | 0.00 | 0.00 | 44 | 1019.8 |
| 20260902220644 | 99 | 261 | 1.0 | 5.0 | 0.00 | 0.00 | 0.00 | 43 | 1019.7 |
| 20260902220139 | 100 | 278 | 2.0 | 3.0 | 0.00 | 0.00 | 0.00 | 44 | 1019.7 |
| 20260902215635 | 100 | 270 | 3.0 | 3.0 | 0.00 | 0.00 | 0.00 | 44 | 1019.8 |
| 20260902215130 | 99 | 205 | 3.0 | 3.0 | 0.00 | 0.00 | 0.00 | 45 | 1019.7 |
| 20260902214625 | 100 | 156 | 1.0 | 2.0 | 0.00 | 0.00 | 0.00 | 43 | 1019.8 |
| 20260902214124 | 100 | 118 | 0.0 | 5.0 | 0.00 | 0.00 | 0.00 | 42 | 1019.7 |
| 20260902213620 | 100 | 151 | 2.0 | 3.0 | 0.00 | 0.00 | 0.00 | 42 | 1019.9 |
| 20260902213119 | 100 | 141 | 0.0 | 3.0 | 0.00 | 0.00 | 0.00 | 43 | 1019.6 |
| 20260902212615 | 101 | 222 | 2.0 | 2.0 | 0.00 | 0.00 | 0.00 | 43 | 1019.7 |
| 20260902212111 | 100 | 193 | 2.0 | 3.0 | 0.00 | 0.00 | 0.00 | 44 | 1020.0 |
| 20260902211607 | 100 | 206 | 2.0 | 5.0 | 0.00 | 0.00 | 0.00 | 44 | 1019.9 |
| 20260902211102 | 100 | 222 | 1.0 | 2.0 | 0.00 | 0.00 | 0.00 | 44 | 1019.9 |
| 20260902210601 | 101 | 176 | 1.0 | 2.0 | 0.00 | 0.00 | 0.00 | 43 | 1020.1 |
| 20260902210056 | 100 | 159 | 1.0 | 5.0 | 0.00 | 0.00 | 0.00 | 43 | 1020.0 |
| 20260902205555 | 100 | 144 | 4.0 | 6.0 | 0.00 | 0.00 | 0.00 | 44 | 1019.9 |
| 20260902205050 | 100 | 206 | 2.0 | 5.0 | 0.00 | 0.00 | 0.00 | 44 | 1020.0 |
| 20260902204545 | 99 | 139 | 2.0 | 2.0 | 0.00 | 0.00 | 0.00 | 44 | 1020.1 |
| 20260902204040 | 99 | 181 | 2.0 | 7.0 | 0.00 | 0.00 | 0.00 | 45 | 1020.1 |
| 20260902203535 | 100 | 227 | 2.0 | 3.0 | 0.00 | 0.00 | 0.00 | 43 | 1020.2 |
| 20260902203034 | 101 | 141 | 2.0 | 5.0 | 0.00 | 0.00 | 0.00 | 45 | 1020.3 |
| 20260902202530 | 100 | 222 | 3.0 | 5.0 | 0.00 | 0.00 | 0.00 | 45 | 1020.2 |
| 20260902202026 | 100 | 191 | 0.0 | 2.0 | 0.00 | 0.00 | 0.00 | 46 | 1020.1 |
| 20260902201522 | 100 | 255 | 1.0 | 5.0 | 0.00 | 0.00 | 0.00 | 46 | 1020.3 |
| 20260902201021 | 100 | 32 | 3.0 | 5.0 | 0.00 | 0.00 | 0.00 | 44 | 1020.3 |
| 20260902200516 | 100 | 306 | 1.0 | 3.0 | 0.00 | 0.00 | 0.00 | 45 | 1020.4 |
| 20260902200013 | 99 | 142 | 4.0 | 6.0 | 0.00 | 0.00 | 0.00 | 47 | 1020.4 |
| 20260902195508 | 100 | 151 | 3.0 | 5.0 | 0.00 | 0.00 | 0.00 | 45 | 1020.5 |
| 20260902195007 | 100 | 88 | 3.0 | 5.0 | 0.00 | 0.00 | 0.00 | 44 | 1020.5 |
| 20260902194501 | 100 | 351 | 4.0 | 6.0 | 0.00 | 0.00 | 0.00 | 45 | 1020.6 |
| 20260902193956 | 100 | 168 | 3.0 | 5.0 | 0.00 | 0.00 | 0.00 | 46 | 1020.8 |
| 20260902193451 | 100 | 157 | 1.0 | 3.0 | 0.00 | 0.00 | 0.00 | 44 | 1020.8 |
| 20260902192950 | 99 | 127 | 1.0 | 2.0 | 0.00 | 0.00 | 0.00 | 46 | 1020.7 |
| 20260902192444 | 98 | 150 | 4.0 | 6.0 | 0.00 | 0.00 | 0.00 | 49 | 1020.8 |
| 20260902191943 | 98 | 222 | 2.0 | 2.0 | 0.00 | 0.00 | 0.00 | 46 | 1020.7 |
| 20260902191438 | 101 | 133 | 1.0 | 5.0 | 0.00 | 0.00 | 0.00 | 46 | 1021.0 |
| 20260902190933 | 100 | 226 | 1.0 | 5.0 | 0.00 | 0.00 | 0.00 | 45 | 1020.9 |
| 20260902190429 | 98 | 138 | 1.0 | 3.0 | 0.00 | 0.00 | 0.00 | 48 | 1021.0 |
| 20260902185924 | 96 | 133 | 0.0 | 2.0 | 0.00 | 0.00 | 0.00 | 48 | 1021.0 |
| 20260902185421 | 98 | 181 | 2.0 | 5.0 | 0.00 | 0.00 | 0.00 | 48 | 1021.0 |
| 20260902184915 | 98 | 140 | 1.0 | 3.0 | 0.00 | 0.00 | 0.00 | 49 | 1021.1 |
| 20260902184410 | 98 | 195 | 1.0 | 8.0 | 0.00 | 0.00 | 0.00 | 49 | 1021.1 |
| 20260902183906 | 98 | 124 | 0.0 | 2.0 | 0.00 | 0.00 | 0.00 | 47 | 1021.2 |
| 20260902183402 | 99 | 161 | 1.0 | 6.0 | 0.00 | 0.00 | 0.00 | 48 | 1021.2 |
| 20260902182858 | 99 | 262 | 3.0 | 3.0 | 0.00 | 0.00 | 0.00 | 48 | 1021.1 |